KLGC/LGC METAR and TAF weather

Enter ICAO airport designator
Station Type Date Time Source
KLGC METAR 2019/04/18 22:55 UTC NOAA

KLGC 182255Z AUTO 16007KT 10SM SCT050 SCT065 26/15 A2978 RMK AO2 T02600150


Station Type Date Time Source
KLGC Decoded METAR 2019/04/18 22:55 UTC NOAA

La Grange, Callaway Airport, GA, United States (KLGC) 33-00-32N 085-04-21W
Apr 18, 2019 - 06:55 PM EDT / 2019.04.18 2255 UTC
Wind: from the SSE (160 degrees) at 8 MPH (7 KT):0
Visibility: 10 mile(s):0
Sky conditions: partly cloudy
Temperature: 78.8 F (26.0 C)
Dew Point: 59.0 F (15.0 C)
Relative Humidity: 50%
Pressure (altimeter): 29.78 in. Hg (1008 hPa)
ob: KLGC 182255Z AUTO 16007KT 10SM SCT050 SCT065 26/15 A2978 RMK AO2 T02600150
cycle: 23

Station Type Date Time Source
KLGC TAF UTC NOAA

Error!

Example: see airport list